EDDF/FRA METAR and TAF weather

Enter ICAO airport designator
Station Type Date Time Source
EDDF METAR 2019/02/21 11:20 UTC NOAA

EDDF 211120Z 22003KT 190V250 9999 BKN038 08/04 Q1028 NOSIG


Station Type Date Time Source
EDDF Decoded METAR 2019/02/21 11:20 UTC NOAA

Frankfurt / M-Flughafen, Germany (EDDF) 50-03N 008-36E 113M
Feb 21, 2019 - 06:20 AM EST / 2019.02.21 1120 UTC
Wind: from the SW (220 degrees) at 3 MPH (3 KT) (direction variable):0
Visibility: greater than 7 mile(s):0
Sky conditions: mostly cloudy
Temperature: 46 F (8 C)
Dew Point: 39 F (4 C)
Relative Humidity: 75%
Pressure (altimeter): 30.36 in. Hg (1028 hPa)
ob: EDDF 211120Z 22003KT 190V250 9999 BKN038 08/04 Q1028 NOSIG
cycle: 11

Station Type Date Time Source
EDDF TAF 2019/02/21 12:28 UTC NOAA

TAF EDDF 211100Z 2112/2218 23005KT 9999 BKN045
TEMPO 2112/2118 SCT045 PROB30
TEMPO 2114/2119 4500 -SHRA SCT025TCU PROB40
TEMPO 2122/2208 3000 -RADZ BR BKN012
BECMG 2204/2206 31006KT
BECMG 2210/2212 02007KT
BECMG 2214/2216 SCT045


Example: see airport list